Ashford, Connecticut
Current Conditions -  °F | °C
As of 4:52 AM on Saturday 29 Nov 2014 (Local Time) from KIJD Reporting Station
Clear Clear  
Wind Chill: 18°   Ceiling: Unl
Heat Index: 18°   Visibility: 10mi
Dew Point: 13°   Wind: 0mph
Humidity: 81%   Direction: NA
Pressure: 30.3"   Gusts: NA
Location:  41.87°N, 72.12°W
Report Text: KIJD 290952Z AUTO 00000KT 10SM CLR M08/M11 A3030 RMK AO2 SLP263 T10781106
Loading
Personal Weather Stations






























Interactive Weather Map New forecast layout! Learn more

10-Day Weather Forecast

Advertisements
Track Severe Weather on mobile